Accueil
METAR-TAF:

METAR-TAF

Aéroports :

Aéroport international de Curaçao

Curaçao, Antilles néerlandaises

latitude: 12-12N, longitude: 068-58W, altitude: 9 m

Observation

Le bulletin a été fait il y a 25 minutes, à 21:00 UTC
Vent 11 kt de est
Température 31°C
Humidité 66%
Pression 1011 hPa
Visibilité 10 km ou plus

METAR: TNCC 192100Z AUTO 08011KT 9999 NSC 31/24 Q1011 NOSIG

Heure: 17:25 (21:25 UTC)

Prévision

Le bulletin a été fait il y a 5 heures et 45 minutes, à 15:40 UTC
Prévision valable du 19 à 18 UTC au 20 à 18 UTC
Vent 15 kt de est/sud-est
Visibilité 10 km ou plus
Nuages épars à une hauteur de 2000 ft
Probabilité 30% :
Temporairement
du 19 à 18 UTC au 20 à 15 UTC
Visibilité: 8000 m
Nuages fragmentés à une hauteur de 1500 ft
averses de pluie

TAF: TNCC 191540Z 1918/2018 11015KT 9999 SCT020 PROB30 TEMPO 1918/2015 8000 SHRA BKN015

Observations et prévisions météorologiques de plus de 4000 aéroports (messages METAR et TAF).

Les stations disponibles sont représentées par des disques jaunes et rouges sur la carte.

Passer la souris dessus pour voir le nom de la station.

Cliquer dessus pour voir les observations et prévisions météorologiques.

Pour changer de carte: cliquez sur les boutons verts avec une croix noire pour zoomer, sur le bouton vert avec un tiret pour effectuer un zoom arrière, ou sur les flèches vertes pour les cartes adjacentes.


METAR-TAF: